Pixley, California
Current Conditions -  °F | °C
As of 2:15 AM on Thursday 23 Oct 2014 (Local Time) from KPTV Reporting Station
Clear Clear  
Wind Chill: 55°   Ceiling: Unl
Heat Index: 55°   Visibility: 10mi
Dew Point: 45°   Wind: 3mph
Humidity: 67%   Direction: 70°ENE
Pressure: 30.05"   Gusts: NA
Location:  35.97°N, 119.29°W
Report Text: KPTV 230915Z 07003KT 10SM CLR 13/07 A3005 RMK AO1
Loading
Personal Weather Stations






























Interactive Weather Map
Tropical Storm Tracking
New forecast layout! Learn more

10-Day Weather Forecast

Advertisements
Track Severe Weather on mobile